Time;durP1;ratioP1;P1;durP2;ratioP2;P2;SDS_P1;SDS_P2;PMS_P1;PMS_P2;Temp;Humidity;BMP_temperature;BMP_pressure;BME280_temperature;BME280_humidity;BME280_pressure;Samples;Min_cycle;Max_cycle;Signal;HPM_P1;HPM_P2
2022/06/19 00:01:26;;;;;;;;;;;11.00;99.90;;;;;;5013843;28;19910;-74
2022/06/19 00:03:54;;;;;;;;;;;11.00;99.90;;;;;;5014323;28;20393;-73
2022/06/19 00:06:21;;;;;;;;;;;11.00;99.90;;;;;;5014074;28;19917;-70
2022/06/19 00:08:48;;;;;;;;;;;11.10;99.90;;;;;;5014111;28;19913;-72
2022/06/19 00:11:16;;;;;;;;;;;11.10;99.90;;;;;;5014256;28;19996;-73
2022/06/19 00:13:43;;;;;;;;;;;11.20;99.90;;;;;;5014115;28;19984;-73
2022/06/19 00:16:09;;;;;;;;;;;11.20;99.90;;;;;;5014039;28;20386;-71
2022/06/19 00:18:38;;;;;;;;;;;11.30;99.90;;;;;;5014206;28;20282;-71
2022/06/19 00:21:05;;;;;;;;;;;11.50;99.90;;;;;;5014093;28;19951;-72
2022/06/19 00:23:32;;;;;;;;;;;11.60;99.90;;;;;;5014196;28;20281;-72
2022/06/19 00:25:59;;;;;;;;;;;11.70;99.90;;;;;;5014052;28;19940;-74
2022/06/19 00:28:25;;;;;;;;;;;11.80;99.90;;;;;;5014324;28;19940;-71
2022/06/19 00:30:52;;;;;;;;;;;11.80;99.90;;;;;;5012702;28;20339;-73
2022/06/19 00:33:19;;;;;;;;;;;12.00;99.90;;;;;;5014102;28;19905;-71
2022/06/19 00:35:47;;;;;;;;;;;12.00;99.90;;;;;;5012761;28;19913;-74
2022/06/19 00:38:13;;;;;;;;;;;12.10;99.90;;;;;;5013895;28;20316;-72
2022/06/19 00:40:40;;;;;;;;;;;12.20;99.90;;;;;;5014575;28;19905;-76
2022/06/19 00:43:07;;;;;;;;;;;12.30;99.90;;;;;;5013842;28;19996;-75
2022/06/19 00:45:41;;;;;;;;;;;12.50;99.90;;;;;;5014116;28;19927;-71
2022/06/19 00:48:12;;;;;;;;;;;12.50;99.90;;;;;;5013777;28;19913;-75
2022/06/19 00:50:39;;;;;;;;;;;12.60;99.90;;;;;;5013866;28;19920;-75
2022/06/19 00:53:08;;;;;;;;;;;12.60;99.90;;;;;;5013986;28;20393;-73
2022/06/19 00:55:38;;;;;;;;;;;12.60;99.90;;;;;;5015373;28;20445;-71
2022/06/19 00:58:09;;;;;;;;;;;12.60;99.90;;;;;;5017617;28;19905;-75
2022/06/19 01:00:36;;;;;;;;;;;12.60;99.90;;;;;;5017504;28;19910;-74
2022/06/19 01:03:06;;;;;;;;;;;12.70;99.90;;;;;;5017894;28;19951;-76
2022/06/19 01:05:35;;;;;;;;;;;12.70;99.90;;;;;;5017329;28;19913;-72
2022/06/19 01:08:02;;;;;;;;;;;12.80;99.90;;;;;;5016022;28;20285;-76
2022/06/19 01:10:30;;;;;;;;;;;13.00;99.90;;;;;;5017439;28;19912;-72
2022/06/19 01:12:58;;;;;;;;;;;13.10;99.90;;;;;;5017643;28;20373;-76
2022/06/19 01:15:25;;;;;;;;;;;13.20;99.90;;;;;;5017372;28;20278;-76
2022/06/19 01:17:53;;;;;;;;;;;13.30;99.90;;;;;;5017140;28;19913;-75
2022/06/19 01:20:21;;;;;;;;;;;13.30;99.90;;;;;;5017311;28;19906;-77
2022/06/19 01:23:10;;;;;;;;;;;13.40;99.90;;;;;;5017094;28;19906;-76
2022/06/19 01:25:38;;;;;;;;;;;13.40;99.90;;;;;;5015925;28;20278;-72
2022/06/19 01:30:53;;;;;;;;;;;13.50;99.90;;;;;;5006367;28;19960;-76
2022/06/19 01:33:22;;;;;;;;;;;13.50;99.90;;;;;;5027165;28;19949;-75
2022/06/19 01:35:50;;;;;;;;;;;13.50;99.90;;;;;;5004930;28;19960;-77
2022/06/19 01:38:18;;;;;;;;;;;13.60;99.90;;;;;;5012860;28;20298;-76
2022/06/19 01:40:51;;;;;;;;;;;13.50;99.90;;;;;;5006585;28;20345;-72
2022/06/19 01:43:19;;;;;;;;;;;13.50;99.90;;;;;;5005606;28;20381;-75
2022/06/19 01:45:48;;;;;;;;;;;13.50;99.90;;;;;;5014436;28;19945;-73
2022/06/19 01:48:16;;;;;;;;;;;13.50;99.90;;;;;;5013018;28;19905;-73
2022/06/19 01:50:43;;;;;;;;;;;13.50;99.90;;;;;;5012815;28;19936;-72
2022/06/19 01:53:13;;;;;;;;;;;13.60;99.90;;;;;;5014194;28;19960;-72
2022/06/19 01:55:40;;;;;;;;;;;13.70;99.90;;;;;;5013990;28;19909;-73
2022/06/19 01:58:08;;;;;;;;;;;13.80;99.90;;;;;;5012837;28;20621;-75
2022/06/19 02:00:35;;;;;;;;;;;13.90;99.90;;;;;;5012320;28;19973;-72
2022/06/19 02:03:07;;;;;;;;;;;13.90;99.90;;;;;;5012563;28;19951;-73
2022/06/19 02:05:36;;;;;;;;;;;14.00;99.90;;;;;;5012083;28;19915;-74
2022/06/19 02:08:03;;;;;;;;;;;14.00;99.90;;;;;;5012717;28;19914;-76
2022/06/19 02:10:30;;;;;;;;;;;14.00;99.90;;;;;;5014109;28;19909;-76
2022/06/19 02:13:00;;;;;;;;;;;14.10;99.90;;;;;;5015530;28;19905;-76
2022/06/19 02:15:27;;;;;;;;;;;14.10;99.90;;;;;;5014582;28;20354;-72
2022/06/19 02:17:54;;;;;;;;;;;14.10;99.90;;;;;;5016054;28;20358;-75
2022/06/19 02:20:21;;;;;;;;;;;14.10;99.90;;;;;;5015763;28;19905;-77
2022/06/19 02:22:48;;;;;;;;;;;14.20;99.90;;;;;;5015929;28;19905;-76
2022/06/19 02:25:15;;;;;;;;;;;14.20;99.90;;;;;;5016754;28;19905;-75
2022/06/19 02:27:42;;;;;;;;;;;14.30;99.90;;;;;;5016081;28;20579;-73
2022/06/19 02:30:10;;;;;;;;;;;14.30;99.90;;;;;;5016042;28;19909;-76
2022/06/19 02:32:40;;;;;;;;;;;14.40;99.90;;;;;;5016052;28;19905;-76
2022/06/19 02:35:07;;;;;;;;;;;14.50;99.90;;;;;;5015842;28;19905;-73
2022/06/19 02:37:38;;;;;;;;;;;14.50;99.90;;;;;;5015548;28;19920;-76
2022/06/19 02:40:13;;;;;;;;;;;14.60;99.90;;;;;;5015657;28;19905;-77
2022/06/19 02:42:41;;;;;;;;;;;14.60;99.90;;;;;;5015691;28;19906;-77
2022/06/19 02:45:12;;;;;;;;;;;14.70;99.90;;;;;;5015548;28;19913;-76
2022/06/19 02:47:38;;;;;;;;;;;14.80;99.90;;;;;;5015186;28;20331;-76
2022/06/19 02:50:06;;;;;;;;;;;14.80;99.90;;;;;;5015722;28;19912;-72
2022/06/19 02:52:33;;;;;;;;;;;14.70;99.90;;;;;;5015427;28;19996;-72
2022/06/19 02:55:00;;;;;;;;;;;14.80;99.90;;;;;;5015448;28;20269;-76
2022/06/19 02:57:27;;;;;;;;;;;14.80;99.90;;;;;;5015249;28;19914;-72
2022/06/19 02:59:54;;;;;;;;;;;14.90;99.90;;;;;;5015219;28;19906;-71
2022/06/19 03:02:21;;;;;;;;;;;15.00;99.90;;;;;;5015470;28;20247;-72
2022/06/19 03:04:50;;;;;;;;;;;15.10;99.90;;;;;;5015171;28;19906;-76
2022/06/19 03:07:17;;;;;;;;;;;15.10;99.90;;;;;;5014916;28;20378;-72
2022/06/19 03:09:44;;;;;;;;;;;15.10;99.90;;;;;;5015044;28;19958;-75
2022/06/19 03:12:11;;;;;;;;;;;15.30;99.90;;;;;;5015293;28;19913;-76
2022/06/19 03:14:38;;;;;;;;;;;15.40;99.90;;;;;;5003186;28;19913;-76
2022/06/19 03:17:05;;;;;;;;;;;15.60;99.90;;;;;;5002436;28;19921;-76
2022/06/19 03:19:33;;;;;;;;;;;15.60;99.90;;;;;;5005076;28;20347;-72
2022/06/19 03:22:00;;;;;;;;;;;15.60;99.90;;;;;;5013643;28;19916;-76
2022/06/19 03:24:27;;;;;;;;;;;15.50;99.90;;;;;;4999637;28;19951;-75
2022/06/19 03:26:54;;;;;;;;;;;15.50;99.90;;;;;;5011137;28;19909;-73
2022/06/19 03:29:20;;;;;;;;;;;15.50;99.90;;;;;;5006734;28;19906;-73
2022/06/19 03:31:47;;;;;;;;;;;15.40;99.90;;;;;;4997574;28;20298;-74
2022/06/19 03:34:14;;;;;;;;;;;15.40;99.90;;;;;;5003769;28;19918;-75
2022/06/19 03:36:41;;;;;;;;;;;15.40;99.90;;;;;;4996805;28;19960;-73
2022/06/19 03:39:09;;;;;;;;;;;15.50;99.90;;;;;;4992621;28;20336;-78
2022/06/19 03:41:37;;;;;;;;;;;15.40;99.90;;;;;;4994465;28;20384;-74
2022/06/19 03:44:04;;;;;;;;;;;15.30;99.90;;;;;;4994914;28;19948;-71
2022/06/19 03:46:31;;;;;;;;;;;15.30;99.90;;;;;;5008935;28;20001;-71
2022/06/19 03:48:59;;;;;;;;;;;15.30;99.90;;;;;;4996683;28;20351;-75
2022/06/19 03:51:26;;;;;;;;;;;15.30;99.90;;;;;;5005517;28;19910;-72
2022/06/19 03:53:53;;;;;;;;;;;15.40;99.90;;;;;;5003370;28;20438;-72
2022/06/19 03:56:24;;;;;;;;;;;15.50;99.90;;;;;;4996292;28;19917;-72
2022/06/19 03:58:51;;;;;;;;;;;15.60;99.90;;;;;;5008874;28;20339;-74
2022/06/19 04:01:19;;;;;;;;;;;15.60;99.90;;;;;;5004628;28;19944;-75
2022/06/19 04:03:47;;;;;;;;;;;15.60;99.90;;;;;;5005577;28;20251;-72
2022/06/19 04:06:14;;;;;;;;;;;15.60;99.90;;;;;;5003502;28;19918;-73
2022/06/19 04:08:44;;;;;;;;;;;15.60;99.90;;;;;;5004560;28;19988;-74
2022/06/19 04:11:15;;;;;;;;;;;15.50;99.90;;;;;;5001300;28;19910;-74
2022/06/19 04:13:41;;;;;;;;;;;15.30;99.90;;;;;;4993146;28;19910;-75
2022/06/19 04:16:11;;;;;;;;;;;15.20;99.90;;;;;;4992742;28;19917;-76
2022/06/19 04:18:38;;;;;;;;;;;15.10;99.90;;;;;;5008918;28;19912;-75
2022/06/19 04:21:05;;;;;;;;;;;15.10;99.90;;;;;;4997097;28;19952;-74
2022/06/19 04:23:31;;;;;;;;;;;15.10;99.90;;;;;;5009393;28;19917;-71
2022/06/19 04:25:58;;;;;;;;;;;15.00;99.90;;;;;;5003637;28;19927;-72
2022/06/19 04:28:25;;;;;;;;;;;15.00;99.90;;;;;;5004929;28;19959;-78
2022/06/19 04:30:53;;;;;;;;;;;15.00;99.90;;;;;;5007763;28;19948;-78
2022/06/19 04:33:20;;;;;;;;;;;15.00;99.90;;;;;;5010001;28;19949;-77
2022/06/19 04:35:48;;;;;;;;;;;15.00;99.90;;;;;;4998621;28;19956;-78
2022/06/19 04:38:16;;;;;;;;;;;15.00;99.90;;;;;;5002470;28;19906;-79
2022/06/19 04:40:43;;;;;;;;;;;15.10;99.90;;;;;;4997974;28;20309;-74
2022/06/19 04:43:10;;;;;;;;;;;15.20;99.90;;;;;;5011269;28;19906;-74
2022/06/19 04:45:38;;;;;;;;;;;15.30;99.90;;;;;;5003857;28;20385;-72
2022/06/19 04:48:05;;;;;;;;;;;15.40;99.90;;;;;;5004988;28;19968;-80
2022/06/19 04:50:32;;;;;;;;;;;15.40;99.90;;;;;;5009033;28;19910;-78
2022/06/19 04:52:59;;;;;;;;;;;15.40;99.90;;;;;;5006191;28;19909;-78
2022/06/19 04:55:26;;;;;;;;;;;15.40;99.90;;;;;;5008601;28;19996;-71
2022/06/19 04:57:53;;;;;;;;;;;15.40;99.90;;;;;;5009047;28;19916;-71
2022/06/19 05:00:20;;;;;;;;;;;15.30;99.90;;;;;;5007808;28;19986;-76
2022/06/19 05:02:50;;;;;;;;;;;15.30;99.90;;;;;;5007153;28;19913;-76
2022/06/19 05:05:19;;;;;;;;;;;15.20;99.90;;;;;;5002672;28;19914;-71
2022/06/19 05:07:46;;;;;;;;;;;15.30;99.90;;;;;;5009502;28;19912;-72
2022/06/19 05:10:13;;;;;;;;;;;15.20;99.90;;;;;;5007041;28;19905;-79
2022/06/19 05:12:40;;;;;;;;;;;15.20;99.90;;;;;;5009157;28;19905;-78
2022/06/19 05:15:07;;;;;;;;;;;15.20;99.90;;;;;;5004440;28;20278;-72
2022/06/19 05:17:34;;;;;;;;;;;15.20;99.90;;;;;;5006585;28;19914;-77
2022/06/19 05:20:02;;;;;;;;;;;15.20;99.90;;;;;;5005936;28;20278;-73
2022/06/19 05:22:31;;;;;;;;;;;15.20;99.90;;;;;;5006497;28;19909;-73
2022/06/19 05:24:58;;;;;;;;;;;15.10;99.90;;;;;;5008366;28;19913;-79
2022/06/19 05:27:25;;;;;;;;;;;15.20;99.90;;;;;;5007780;28;20396;-80
2022/06/19 05:29:51;;;;;;;;;;;15.20;99.90;;;;;;5007282;28;20739;-76
2022/06/19 05:32:18;;;;;;;;;;;15.30;99.90;;;;;;5014453;28;19905;-75
2022/06/19 05:34:45;;;;;;;;;;;15.20;99.90;;;;;;5013303;28;19910;-74
2022/06/19 05:37:12;;;;;;;;;;;15.20;99.90;;;;;;5011973;28;19975;-77
2022/06/19 05:39:39;;;;;;;;;;;15.20;99.90;;;;;;5012412;28;19916;-80
2022/06/19 05:42:06;;;;;;;;;;;15.20;99.90;;;;;;5014141;28;19945;-75
2022/06/19 05:44:33;;;;;;;;;;;15.30;99.90;;;;;;5012232;28;19909;-76
2022/06/19 05:46:59;;;;;;;;;;;15.20;99.90;;;;;;5011838;28;20278;-80
2022/06/19 05:49:26;;;;;;;;;;;15.10;99.90;;;;;;5013386;28;19909;-80
2022/06/19 05:51:53;;;;;;;;;;;15.00;99.90;;;;;;5012460;28;20270;-80
2022/06/19 05:54:20;;;;;;;;;;;14.90;99.90;;;;;;5014069;28;19913;-78
2022/06/19 05:56:47;;;;;;;;;;;14.90;99.90;;;;;;5011955;28;20019;-79
2022/06/19 05:59:14;;;;;;;;;;;14.90;99.90;;;;;;5010784;28;20377;-77
2022/06/19 06:01:41;;;;;;;;;;;14.90;99.90;;;;;;5012848;28;20199;-75
2022/06/19 06:04:08;;;;;;;;;;;14.80;99.90;;;;;;5012740;28;19909;-71
2022/06/19 06:06:35;;;;;;;;;;;14.80;99.90;;;;;;5011727;28;19929;-73
2022/06/19 06:09:02;;;;;;;;;;;14.70;99.90;;;;;;5010702;28;20614;-72
2022/06/19 06:11:29;;;;;;;;;;;14.70;99.90;;;;;;5012347;28;19916;-73
2022/06/19 06:13:56;;;;;;;;;;;14.70;99.90;;;;;;5012662;28;19905;-77
2022/06/19 06:16:23;;;;;;;;;;;14.70;99.90;;;;;;5011406;28;19917;-79
2022/06/19 06:18:50;;;;;;;;;;;14.60;99.90;;;;;;5012075;28;19910;-78
2022/06/19 06:21:19;;;;;;;;;;;14.60;99.90;;;;;;5012470;28;19906;-80
2022/06/19 06:23:46;;;;;;;;;;;14.60;99.90;;;;;;5012019;28;19910;-71
2022/06/19 06:26:14;;;;;;;;;;;14.60;99.90;;;;;;5013071;28;19909;-77
2022/06/19 06:28:42;;;;;;;;;;;14.50;99.90;;;;;;5011822;28;19909;-73
2022/06/19 06:31:09;;;;;;;;;;;14.50;99.90;;;;;;5013042;28;19947;-78
2022/06/19 06:33:36;;;;;;;;;;;14.50;99.90;;;;;;5010778;28;19905;-79
2022/06/19 06:36:03;;;;;;;;;;;14.50;99.90;;;;;;5010967;28;19921;-77
2022/06/19 06:38:30;;;;;;;;;;;14.50;99.90;;;;;;5010595;28;19936;-80
2022/06/19 06:40:57;;;;;;;;;;;14.60;99.90;;;;;;5011168;28;19913;-77
2022/06/19 06:43:24;;;;;;;;;;;14.50;99.90;;;;;;5010535;28;19905;-80
2022/06/19 06:45:51;;;;;;;;;;;14.50;99.90;;;;;;5012741;28;19912;-80
2022/06/19 06:48:18;;;;;;;;;;;14.40;99.90;;;;;;5011949;28;19909;-74
2022/06/19 06:50:46;;;;;;;;;;;14.30;99.90;;;;;;5011282;28;19919;-72
2022/06/19 06:53:13;;;;;;;;;;;14.30;99.90;;;;;;5011090;28;19910;-74
2022/06/19 06:55:41;;;;;;;;;;;14.20;99.90;;;;;;5010677;28;19905;-76
2022/06/19 06:58:08;;;;;;;;;;;14.20;99.90;;;;;;5012553;28;19905;-80
2022/06/19 07:00:35;;;;;;;;;;;14.10;99.90;;;;;;5010214;28;19905;-79
2022/06/19 07:03:01;;;;;;;;;;;14.10;99.90;;;;;;5011875;28;19910;-80
2022/06/19 07:05:29;;;;;;;;;;;14.10;99.90;;;;;;5011470;28;20247;-79
2022/06/19 07:07:56;;;;;;;;;;;14.00;99.90;;;;;;5011455;28;19909;-79
2022/06/19 07:10:23;;;;;;;;;;;14.00;99.90;;;;;;5011780;28;19952;-81
2022/06/19 07:12:50;;;;;;;;;;;13.90;99.90;;;;;;5010223;28;19909;-73
2022/06/19 07:15:16;;;;;;;;;;;13.80;99.90;;;;;;5007744;28;20397;-78
2022/06/19 07:17:43;;;;;;;;;;;13.70;99.90;;;;;;5008371;28;20004;-74
2022/06/19 07:20:11;;;;;;;;;;;13.60;99.90;;;;;;5010934;28;19909;-77
2022/06/19 07:22:38;;;;;;;;;;;13.50;99.90;;;;;;5010676;28;19913;-72
2022/06/19 07:25:06;;;;;;;;;;;13.40;99.90;;;;;;5011773;28;20282;-75
2022/06/19 07:27:33;;;;;;;;;;;13.20;99.90;;;;;;5011106;28;19910;-78
2022/06/19 07:30:01;;;;;;;;;;;13.10;99.90;;;;;;5011220;28;19905;-78
2022/06/19 07:32:27;;;;;;;;;;;13.00;99.90;;;;;;5010380;28;19905;-74
2022/06/19 07:34:55;;;;;;;;;;;12.90;99.90;;;;;;5009866;28;20076;-75
2022/06/19 07:37:22;;;;;;;;;;;12.70;99.90;;;;;;5010342;28;19920;-74
2022/06/19 07:39:49;;;;;;;;;;;12.60;99.90;;;;;;5010796;28;19913;-77
2022/06/19 07:42:15;;;;;;;;;;;12.50;99.90;;;;;;5010006;28;20385;-79
2022/06/19 07:44:42;;;;;;;;;;;12.40;99.90;;;;;;5009613;28;19913;-72
2022/06/19 07:50:09;;;;;;;;;;;12.30;99.90;;;;;;5010252;28;19920;-77
2022/06/19 07:52:40;;;;;;;;;;;12.30;99.90;;;;;;5011180;28;19943;-78
2022/06/19 07:55:07;;;;;;;;;;;12.20;99.90;;;;;;5011291;28;19932;-78
2022/06/19 07:57:35;;;;;;;;;;;12.10;99.90;;;;;;5011611;28;20502;-79
2022/06/19 08:00:02;;;;;;;;;;;12.10;99.90;;;;;;5008856;28;19906;-78
2022/06/19 08:02:29;;;;;;;;;;;12.10;99.90;;;;;;5009874;28;19914;-79
2022/06/19 08:04:58;;;;;;;;;;;12.10;99.90;;;;;;5007268;28;19909;-74
2022/06/19 08:07:24;;;;;;;;;;;12.10;99.90;;;;;;5011427;28;19917;-78
2022/06/19 08:09:51;;;;;;;;;;;12.00;99.90;;;;;;5008759;28;20374;-73
2022/06/19 08:12:20;;;;;;;;;;;12.00;99.90;;;;;;5010640;28;19906;-75
2022/06/19 08:14:47;;;;;;;;;;;12.00;99.90;;;;;;5010704;28;19909;-79
2022/06/19 08:17:14;;;;;;;;;;;12.00;99.90;;;;;;5011472;28;19913;-77
2022/06/19 08:19:41;;;;;;;;;;;12.00;99.90;;;;;;5008503;28;19905;-76
2022/06/19 08:22:07;;;;;;;;;;;11.90;99.90;;;;;;5007555;28;20301;-78
2022/06/19 08:24:34;;;;;;;;;;;11.90;99.90;;;;;;5009859;28;19906;-74
2022/06/19 08:27:04;;;;;;;;;;;11.90;99.90;;;;;;5007638;28;19905;-77
2022/06/19 08:29:31;;;;;;;;;;;11.90;99.90;;;;;;5009996;28;20267;-77
2022/06/19 08:31:58;;;;;;;;;;;12.00;99.90;;;;;;5010097;28;19909;-76
2022/06/19 08:34:26;;;;;;;;;;;12.00;99.90;;;;;;5010741;28;19905;-76
2022/06/19 08:36:53;;;;;;;;;;;12.10;99.90;;;;;;5006319;28;20029;-79
2022/06/19 08:39:20;;;;;;;;;;;12.10;99.90;;;;;;5008700;28;19909;-77
2022/06/19 08:41:58;;;;;;;;;;;12.10;99.90;;;;;;5010184;28;20004;-73
2022/06/19 08:44:40;;;;;;;;;;;12.10;99.90;;;;;;5008778;28;19916;-72
2022/06/19 08:47:13;;;;;;;;;;;12.10;99.90;;;;;;5007783;28;19905;-76
2022/06/19 08:49:58;;;;;;;;;;;12.10;99.90;;;;;;5009458;28;19909;-76
2022/06/19 08:52:31;;;;;;;;;;;12.00;99.90;;;;;;5009942;28;19911;-76
2022/06/19 08:55:15;;;;;;;;;;;12.00;99.90;;;;;;5009646;28;19909;-73
2022/06/19 08:57:41;;;;;;;;;;;12.00;99.90;;;;;;5010742;28;19921;-72
2022/06/19 09:00:16;;;;;;;;;;;12.00;99.90;;;;;;5007200;28;19979;-77
2022/06/19 09:03:07;;;;;;;;;;;12.00;99.90;;;;;;5006636;28;19916;-77
2022/06/19 09:05:46;;;;;;;;;;;11.90;99.90;;;;;;5007355;28;19972;-75
2022/06/19 09:08:25;;;;;;;;;;;11.90;99.90;;;;;;5010444;28;19916;-72
2022/06/19 09:11:12;;;;;;;;;;;12.00;99.90;;;;;;5009879;28;19959;-78
2022/06/19 09:13:48;;;;;;;;;;;11.90;99.90;;;;;;5011403;28;19979;-78
2022/06/19 09:16:33;;;;;;;;;;;11.90;99.90;;;;;;5011386;28;19909;-78
2022/06/19 09:19:08;;;;;;;;;;;11.90;99.90;;;;;;5011328;28;20410;-79
2022/06/19 09:21:41;;;;;;;;;;;11.90;99.90;;;;;;5013448;28;20297;-75
2022/06/19 09:24:26;;;;;;;;;;;11.80;99.90;;;;;;5012639;28;19916;-73
2022/06/19 09:26:57;;;;;;;;;;;11.80;99.90;;;;;;5014265;28;19953;-73
2022/06/19 09:29:30;;;;;;;;;;;11.80;99.90;;;;;;5014312;28;19905;-72
2022/06/19 09:32:09;;;;;;;;;;;11.80;99.90;;;;;;5015252;28;19960;-72
2022/06/19 09:34:43;;;;;;;;;;;11.80;99.90;;;;;;5010633;28;19920;-75
2022/06/19 09:37:16;;;;;;;;;;;11.80;99.90;;;;;;5012368;28;19917;-79
2022/06/19 09:39:49;;;;;;;;;;;11.80;99.90;;;;;;5013767;28;20325;-74
2022/06/19 09:42:29;;;;;;;;;;;11.70;99.90;;;;;;5015030;28;19918;-73
2022/06/19 09:45:14;;;;;;;;;;;11.70;99.90;;;;;;5013444;28;19905;-72
2022/06/19 09:47:44;;;;;;;;;;;11.70;99.90;;;;;;5013711;28;19905;-76
2022/06/19 09:50:26;;;;;;;;;;;11.70;99.90;;;;;;5013057;28;19912;-79
2022/06/19 09:53:13;;;;;;;;;;;11.60;99.90;;;;;;5014428;28;19952;-74
2022/06/19 09:55:46;;;;;;;;;;;11.60;99.90;;;;;;5013893;28;19988;-78
2022/06/19 09:58:14;;;;;;;;;;;11.60;99.90;;;;;;5013525;28;19924;-78
2022/06/19 10:00:43;;;;;;;;;;;11.60;99.90;;;;;;5014941;28;20339;-78
2022/06/19 10:03:20;;;;;;;;;;;11.60;99.90;;;;;;5013441;28;19917;-75
2022/06/19 10:05:56;;;;;;;;;;;11.60;99.90;;;;;;5010252;28;20370;-79
2022/06/19 10:08:26;;;;;;;;;;;11.60;99.90;;;;;;5012383;28;20441;-73
2022/06/19 10:10:58;;;;;;;;;;;11.70;99.90;;;;;;5014286;28;19917;-76
2022/06/19 10:13:25;;;;;;;;;;;11.70;99.90;;;;;;5014320;28;19906;-78
2022/06/19 10:15:52;;;;;;;;;;;11.80;99.90;;;;;;5011947;28;20282;-79
2022/06/19 10:18:28;;;;;;;;;;;11.80;99.90;;;;;;5012296;28;19921;-72
2022/06/19 10:21:05;;;;;;;;;;;11.80;99.90;;;;;;5011858;28;19905;-73
2022/06/19 10:23:40;;;;;;;;;;;11.90;99.90;;;;;;5012638;28;19913;-73
2022/06/19 10:26:45;;;;;;;;;;;11.90;99.90;;;;;;5011453;28;19953;-72
2022/06/19 10:29:25;;;;;;;;;;;11.90;99.90;;;;;;4937102;29;19962;-75
2022/06/19 10:32:06;;;;;;;;;;;12.00;99.90;;;;;;4954006;29;20013;-78
2022/06/19 10:34:36;;;;;;;;;;;12.00;99.90;;;;;;4984820;28;19906;-73
2022/06/19 10:37:21;;;;;;;;;;;12.00;99.90;;;;;;5012268;28;20355;-73
2022/06/19 10:39:54;;;;;;;;;;;12.00;99.90;;;;;;5013620;28;19996;-78
2022/06/19 10:42:38;;;;;;;;;;;12.00;99.90;;;;;;5013658;28;19916;-78
2022/06/19 10:45:14;;;;;;;;;;;11.90;99.90;;;;;;5011436;28;19960;-72
2022/06/19 10:47:46;;;;;;;;;;;11.90;99.90;;;;;;5011682;28;19909;-72
2022/06/19 10:50:19;;;;;;;;;;;11.90;99.90;;;;;;5010285;28;19910;-78
2022/06/19 10:52:55;;;;;;;;;;;11.90;99.90;;;;;;5012316;28;19905;-79
2022/06/19 10:55:21;;;;;;;;;;;11.90;99.90;;;;;;5012414;28;19905;-73
2022/06/19 10:57:48;;;;;;;;;;;11.80;99.90;;;;;;5011168;28;19913;-73
2022/06/19 11:00:15;;;;;;;;;;;11.90;99.90;;;;;;5012813;28;19913;-72
2022/06/19 11:05:56;;;;;;;;;;;11.80;99.90;;;;;;5013581;28;19920;-78
2022/06/19 11:08:23;;;;;;;;;;;11.90;99.90;;;;;;5008501;28;20366;-72
2022/06/19 11:10:54;;;;;;;;;;;11.80;99.90;;;;;;5011594;28;19909;-78
2022/06/19 11:13:21;;;;;;;;;;;11.70;99.90;;;;;;5012096;28;19905;-72
2022/06/19 11:16:04;;;;;;;;;;;11.80;99.90;;;;;;5012380;28;19959;-73
2022/06/19 11:18:43;;;;;;;;;;;11.70;99.90;;;;;;5011923;28;19952;-79
2022/06/19 11:21:18;;;;;;;;;;;11.70;99.90;;;;;;5012916;28;19996;-72
2022/06/19 11:23:48;;;;;;;;;;;11.70;99.90;;;;;;5008561;28;19980;-72
2022/06/19 11:26:19;;;;;;;;;;;11.70;99.90;;;;;;5011223;28;19906;-79
2022/06/19 11:29:04;;;;;;;;;;;11.70;99.90;;;;;;5009502;28;19905;-73
2022/06/19 11:31:35;;;;;;;;;;;11.70;99.90;;;;;;5011796;28;20351;-72
2022/06/19 11:34:43;;;;;;;;;;;11.70;99.90;;;;;;5012234;28;20196;-71
2022/06/19 11:36:51;;;;;;;;;;;11.60;99.90;;;;;;5011947;28;20282;-77
2022/06/19 11:39:34;;;;;;;;;;;11.60;99.90;;;;;;5012457;28;20433;-78
2022/06/19 11:42:21;;;;;;;;;;;11.70;99.90;;;;;;5008421;28;19906;-73
2022/06/19 11:44:52;;;;;;;;;;;11.70;99.90;;;;;;4998898;28;19928;-74
2022/06/19 11:47:24;;;;;;;;;;;11.60;99.90;;;;;;5009890;28;20358;-73
2022/06/19 11:49:51;;;;;;;;;;;11.60;99.90;;;;;;5012058;28;20047;-78
2022/06/19 11:52:19;;;;;;;;;;;11.60;99.90;;;;;;5011400;28;20000;-73
2022/06/19 11:54:47;;;;;;;;;;;11.60;99.90;;;;;;5012683;28;19905;-73
2022/06/19 11:57:28;;;;;;;;;;;11.60;99.90;;;;;;5010822;28;20003;-77
2022/06/19 11:59:56;;;;;;;;;;;11.50;99.90;;;;;;5009396;28;19905;-74
2022/06/19 12:02:26;;;;;;;;;;;11.50;99.90;;;;;;5010802;28;19913;-73
2022/06/19 12:04:54;;;;;;;;;;;11.50;99.90;;;;;;5011022;28;19909;-74
2022/06/19 12:07:22;;;;;;;;;;;11.50;99.90;;;;;;5010485;28;19924;-75
2022/06/19 12:09:57;;;;;;;;;;;11.50;99.90;;;;;;5011969;28;20011;-73
2022/06/19 12:12:24;;;;;;;;;;;11.50;99.90;;;;;;5011662;28;19905;-75
2022/06/19 12:14:51;;;;;;;;;;;11.50;99.90;;;;;;5010181;28;19909;-73
2022/06/19 12:17:18;;;;;;;;;;;11.50;99.90;;;;;;5011462;28;19921;-77
2022/06/19 12:19:52;;;;;;;;;;;11.50;99.90;;;;;;5011148;28;19906;-75
2022/06/19 12:22:21;;;;;;;;;;;11.50;99.90;;;;;;5011342;28;19917;-73
2022/06/19 12:24:55;;;;;;;;;;;11.50;99.90;;;;;;5009555;28;19953;-72
2022/06/19 12:27:22;;;;;;;;;;;11.50;99.90;;;;;;4997588;28;20373;-79
2022/06/19 12:29:58;;;;;;;;;;;11.50;99.90;;;;;;5005233;28;19913;-78
2022/06/19 12:32:29;;;;;;;;;;;11.50;99.90;;;;;;5002164;28;19984;-73
2022/06/19 12:34:57;;;;;;;;;;;11.50;99.90;;;;;;5003804;28;19906;-80
2022/06/19 12:37:27;;;;;;;;;;;11.40;99.90;;;;;;5002304;28;19914;-72
2022/06/19 12:39:56;;;;;;;;;;;11.40;99.90;;;;;;5003159;28;19905;-73
2022/06/19 12:42:32;;;;;;;;;;;11.40;99.90;;;;;;5003672;28;20000;-78
2022/06/19 12:45:09;;;;;;;;;;;11.40;99.90;;;;;;5004192;28;20371;-79
2022/06/19 12:47:53;;;;;;;;;;;11.40;99.90;;;;;;5003681;28;19913;-72
2022/06/19 12:50:38;;;;;;;;;;;11.40;99.90;;;;;;5004428;28;19913;-74
2022/06/19 12:53:16;;;;;;;;;;;11.30;99.90;;;;;;5006385;28;20363;-78
2022/06/19 12:55:46;;;;;;;;;;;11.40;99.90;;;;;;5006048;28;20244;-73
2022/06/19 12:58:22;;;;;;;;;;;11.40;99.90;;;;;;5006995;28;19913;-79
2022/06/19 13:00:59;;;;;;;;;;;11.40;99.90;;;;;;5006855;28;20044;-78
2022/06/19 13:03:34;;;;;;;;;;;11.40;99.90;;;;;;5006273;28;19945;-75
2022/06/19 13:06:18;;;;;;;;;;;11.30;99.90;;;;;;5005656;28;19917;-71
2022/06/19 13:08:56;;;;;;;;;;;11.30;99.90;;;;;;5002553;28;19956;-72
2022/06/19 13:11:40;;;;;;;;;;;11.40;99.90;;;;;;4997927;28;19916;-73
2022/06/19 13:14:15;;;;;;;;;;;11.40;99.90;;;;;;5012786;28;20350;-72
2022/06/19 13:17:00;;;;;;;;;;;11.40;99.90;;;;;;5007915;28;19987;-72
2022/06/19 13:19:30;;;;;;;;;;;11.40;99.90;;;;;;5005883;28;19906;-73
2022/06/19 13:21:57;;;;;;;;;;;11.40;99.90;;;;;;5005981;28;19906;-73
2022/06/19 13:24:40;;;;;;;;;;;11.40;99.90;;;;;;5005017;28;20319;-72
2022/06/19 13:27:12;;;;;;;;;;;11.40;99.90;;;;;;4997207;28;19968;-73
2022/06/19 13:29:44;;;;;;;;;;;11.40;99.90;;;;;;4997054;28;19921;-73
2022/06/19 13:32:11;;;;;;;;;;;11.40;99.90;;;;;;4997425;28;19906;-74
2022/06/19 13:35:00;;;;;;;;;;;11.40;99.90;;;;;;4997192;28;20397;-74
2022/06/19 13:37:29;;;;;;;;;;;11.40;99.90;;;;;;4997529;28;20382;-73
2022/06/19 13:40:14;;;;;;;;;;;11.40;99.90;;;;;;4997431;28;20017;-73
2022/06/19 13:42:41;;;;;;;;;;;11.50;99.90;;;;;;4997327;28;19905;-74
2022/06/19 13:45:11;;;;;;;;;;;11.50;99.90;;;;;;4997489;28;19906;-74
2022/06/19 13:47:45;;;;;;;;;;;11.60;99.90;;;;;;4997080;28;20184;-74
2022/06/19 13:50:24;;;;;;;;;;;11.60;99.90;;;;;;4997497;28;19909;-74
2022/06/19 13:53:06;;;;;;;;;;;11.50;99.90;;;;;;4997341;28;19906;-74
2022/06/19 13:55:33;;;;;;;;;;;11.60;99.90;;;;;;4997295;28;19910;-74
2022/06/19 13:58:05;;;;;;;;;;;11.50;99.90;;;;;;4997066;28;20359;-74
2022/06/19 14:00:49;;;;;;;;;;;11.50;99.90;;;;;;4997051;28;19909;-74
2022/06/19 14:06:23;;;;;;;;;;;11.50;99.90;;;;;;4996140;28;20342;-74
2022/06/19 14:08:57;;;;;;;;;;;11.40;99.90;;;;;;4995647;28;20282;-74
2022/06/19 14:12:03;;;;;;;;;;;11.40;99.90;;;;;;4995678;28;20425;-74
2022/06/19 14:14:12;;;;;;;;;;;11.40;99.90;;;;;;4995570;28;19913;-73
2022/06/19 14:16:49;;;;;;;;;;;11.50;99.90;;;;;;4995698;28;20279;-74
2022/06/19 14:19:24;;;;;;;;;;;11.50;99.90;;;;;;4995856;28;19914;-73
2022/06/19 14:22:09;;;;;;;;;;;11.50;99.90;;;;;;4995644;28;19913;-74
2022/06/19 14:24:54;;;;;;;;;;;11.50;99.90;;;;;;4995289;28;19906;-74
2022/06/19 14:33:43;;;;;;;;;;;11.40;99.90;;;;;;4994744;28;20405;-74
2022/06/19 14:36:10;;;;;;;;;;;11.40;99.90;;;;;;4995191;28;19932;-74
2022/06/19 14:38:37;;;;;;;;;;;11.50;99.90;;;;;;4995242;28;19905;-74
2022/06/19 14:41:06;;;;;;;;;;;11.40;99.90;;;;;;4998813;28;19910;-73
2022/06/19 14:43:34;;;;;;;;;;;11.40;99.90;;;;;;5003650;28;20270;-73
2022/06/19 14:46:04;;;;;;;;;;;11.40;99.90;;;;;;5003650;28;19913;-74
2022/06/19 14:48:33;;;;;;;;;;;11.40;99.90;;;;;;5001054;28;19906;-74
2022/06/19 14:51:12;;;;;;;;;;;11.40;99.90;;;;;;4995146;28;19953;-72
2022/06/19 14:53:50;;;;;;;;;;;11.40;99.90;;;;;;4995304;28;19905;-72